aviador You're here:

KENW Decoded Metar

KENOSHA in WI, USA
Report Time2018-01-18 10:53:00
UTC Time2018-01-18 11:49:33
Flight Rules vfr VFR
Wind240° at 10 kt
W.Decomp.*RWY 25: 9.9 kt HW 1.4 kt LCW
RWY 33: 0.3 kt HW 10 kt LCW
W.Rank240° ranks 4
Current wind is above 240° avg. (9.5)
Visibility9999 m
Phenomena:N/A
Clouds:N/A
Expected CloudBase > 2,000 ft AGL from Temp-Dew spread
CeilingNone
Temp-8°C (ISA -22)
Dew Point-13°C (68% RH)
AAT-14.9°C
QNH1019 hPa
Density Alt-2,133 ft
Elevation719 ft
Report Wrong Elevation
Raw Report
METAR KENW 181053Z AUTO 24010KT 10SM CLR M08/M13 A3008 RMK AO2 SLP200
T10781128=

Extra information for KENW:More info

Metar Taf Metar & Taf Last 4 Metars F.Rules Stats Wind Profile Meteogram Temp Stats Airport Information Weather charts Add Link Nearby VenuesMetar ALERT Operation Metar Decoded Social comments

AIRNAV info for KENW